createdAt,value
2019-04-22T00:00:36.783Z,39.43
2019-04-22T00:01:36.186Z,39.74
2019-04-22T00:02:40.012Z,39.43
2019-04-22T00:03:41.598Z,39.43
2019-04-22T00:04:47.503Z,39.43
2019-04-22T00:05:56.242Z,39.24
2019-04-22T00:06:58.169Z,39.24
2019-04-22T00:08:03.454Z,39.34
2019-04-22T00:09:51.736Z,39.14
2019-04-22T00:11:04.591Z,39.04
2019-04-22T00:12:01.870Z,39.14
2019-04-22T00:13:00.051Z,39.24
2019-04-22T00:13:56.975Z,39.24
2019-04-22T00:14:52.767Z,39.34
2019-04-22T00:15:56.525Z,39.34
2019-04-22T00:16:58.831Z,39.14
2019-04-22T00:18:07.866Z,39.14
2019-04-22T00:20:04.734Z,40.23
2019-04-22T00:20:58.230Z,40.44
2019-04-22T00:22:05.694Z,39.04
2019-04-22T00:22:56.633Z,39.24
2019-04-22T00:23:59.874Z,39.34
2019-04-22T00:25:03.496Z,39.14
2019-04-22T00:26:04.041Z,39.43
2019-04-22T00:27:00.292Z,39.34
2019-04-22T00:28:02.713Z,39.34
2019-04-22T00:29:26.999Z,40.14
2019-04-22T00:30:53.766Z,40.04
2019-04-22T00:32:03.452Z,39.04
2019-04-22T00:32:58.940Z,38.94
2019-04-22T00:33:57.858Z,40.04
2019-04-22T00:34:53.653Z,40.23
2019-04-22T00:35:54.816Z,39.86
2019-04-22T00:36:54.916Z,39.74
2019-04-22T00:38:07.712Z,39.64
2019-04-22T00:38:59.158Z,39.74
2019-04-22T00:39:57.604Z,39.94
2019-04-22T00:41:04.368Z,39.64
2019-04-22T00:42:03.271Z,39.95
2019-04-22T00:43:00.670Z,40.45
2019-04-22T00:44:02.846Z,39.95
2019-04-22T00:45:03.255Z,40.34
2019-04-22T00:45:55.879Z,39.46
2019-04-22T00:47:01.836Z,40.06
2019-04-22T00:48:00.963Z,40.36
2019-04-22T00:49:47.064Z,39.65
2019-04-22T00:50:12.728Z,39.46
2019-04-22T00:51:25.274Z,39.56
2019-04-22T00:52:03.283Z,39.46
2019-04-22T00:53:04.427Z,39.46
2019-04-22T00:53:57.783Z,39.43
2019-04-22T00:55:00.571Z,39.36
2019-04-22T00:55:56.909Z,39.46
2019-04-22T00:57:01.524Z,39.26
2019-04-22T00:58:05.200Z,39.46
2019-04-22T00:58:56.609Z,39.56
2019-04-22T01:00:00.295Z,39.46
2019-04-22T01:01:04.739Z,39.76
2019-04-22T01:02:00.912Z,39.76
2019-04-22T01:03:07.489Z,39.76
2019-04-22T01:04:07.138Z,39.65
2019-04-22T01:05:00.877Z,39.84
2019-04-22T01:05:55.417Z,39.95
2019-04-22T01:06:57.540Z,39.65
2019-04-22T01:08:00.532Z,39.95
2019-04-22T01:09:04.377Z,39.95
2019-04-22T01:09:58.861Z,39.86
2019-04-22T01:11:03.043Z,40.25
2019-04-22T01:12:01.455Z,39.76
2019-04-22T01:12:57.252Z,39.76
2019-04-22T01:13:55.237Z,40.25
2019-04-22T01:15:58.580Z,40.25
2019-04-22T01:17:01.540Z,40.66
2019-04-22T01:17:57.780Z,40.16
2019-04-22T01:18:53.849Z,40.36
2019-04-22T01:20:11.148Z,40.36
2019-04-22T01:22:06.440Z,40.66
2019-04-22T01:22:56.288Z,40.66
2019-04-22T01:23:52.247Z,40.56
2019-04-22T01:24:57.584Z,40.36
2019-04-22T01:25:55.057Z,40.75
2019-04-22T01:26:49.489Z,41.36
2019-04-22T01:27:48.859Z,41.46
2019-04-22T01:28:46.422Z,41.36
2019-04-22T01:29:46.774Z,40.66
2019-04-22T01:30:44.110Z,40.75
2019-04-22T01:31:36.627Z,41.16
2019-04-22T01:32:38.446Z,41.16
2019-04-22T01:33:38.968Z,40.75
2019-04-22T01:34:45.698Z,41.25
2019-04-22T01:35:56.869Z,41.16
2019-04-22T01:36:52.888Z,41.25
2019-04-22T01:37:49.556Z,41.05
2019-04-22T01:38:58.197Z,41.08
2019-04-22T01:39:57.293Z,41.05
2019-04-22T01:41:02.844Z,41.55
2019-04-22T01:41:59.949Z,41.36
2019-04-22T01:43:01.880Z,41.08
2019-04-22T01:44:05.788Z,41.47
2019-04-22T01:44:57.027Z,41.66
2019-04-22T01:46:02.297Z,41.66
2019-04-22T01:47:00.222Z,40.78
2019-04-22T01:47:57.723Z,40.86
2019-04-22T01:48:59.970Z,41.25
2019-04-22T01:49:59.970Z,41.38
2019-04-22T01:50:54.750Z,41.67
2019-04-22T01:53:08.403Z,41.66
2019-04-22T01:54:05.222Z,40.97
2019-04-22T01:55:04.513Z,41.38
2019-04-22T01:56:02.033Z,41.16
2019-04-22T01:56:59.944Z,41.17
2019-04-22T01:57:53.930Z,40.88
2019-04-22T01:58:50.223Z,41.25
2019-04-22T01:59:53.209Z,41.38
2019-04-22T02:01:13.595Z,41.38
2019-04-22T02:02:00.574Z,41.17
2019-04-22T02:02:58.589Z,41.47
2019-04-22T02:04:02.769Z,41.08
2019-04-22T02:04:59.651Z,41.08
2019-04-22T02:05:59.521Z,41.58
2019-04-22T02:07:02.157Z,40.88
2019-04-22T02:08:02.609Z,41.17
2019-04-22T02:09:02.039Z,41.58
2019-04-22T02:09:56.138Z,41.08
2019-04-22T02:11:01.043Z,41.47
2019-04-22T02:12:02.992Z,41.17
2019-04-22T02:13:01.990Z,41.08
2019-04-22T02:13:56.560Z,41.58
2019-04-22T02:14:59.434Z,41.38
2019-04-22T02:16:01.949Z,41.38
2019-04-22T02:17:06.488Z,41.17
2019-04-22T02:18:01.399Z,41.38
2019-04-22T02:19:00.895Z,41.38
2019-04-22T02:19:57.567Z,41.67
2019-04-22T02:20:58.005Z,41.58
2019-04-22T02:21:54.090Z,41.58
2019-04-22T02:23:15.899Z,41.47
2019-04-22T02:23:55.185Z,41.38
2019-04-22T02:25:00.441Z,41.38
2019-04-22T02:26:02.452Z,41.08
2019-04-22T02:26:58.185Z,40.97
2019-04-22T02:28:08.739Z,41.58
2019-04-22T02:28:55.173Z,41.17
2019-04-22T02:29:52.303Z,41.47
2019-04-22T02:33:25.143Z,41.17
2019-04-22T02:35:07.590Z,41.38
2019-04-22T02:36:19.199Z,41.38
2019-04-22T02:37:09.944Z,41.38
2019-04-22T02:38:07.725Z,41.58
2019-04-22T02:39:05.694Z,41.67
2019-04-22T02:40:03.633Z,41.30
2019-04-22T02:42:03.016Z,41.47
2019-04-22T02:43:20.941Z,41.47
2019-04-22T02:45:23.292Z,41.77
2019-04-22T02:47:09.795Z,41.69
2019-04-22T02:48:10.404Z,41.77
2019-04-22T02:49:11.224Z,41.27
2019-04-22T02:52:06.433Z,41.67
2019-04-22T02:53:04.773Z,41.39
2019-04-22T02:55:08.213Z,41.30
2019-04-22T02:56:15.612Z,41.39
2019-04-22T02:57:04.330Z,41.19
2019-04-22T02:57:57.925Z,41.99
2019-04-22T02:59:14.390Z,41.19
2019-04-22T03:00:09.694Z,41.19
2019-04-22T03:01:06.084Z,40.89
2019-04-22T03:02:21.348Z,41.19
2019-04-22T03:04:04.431Z,41.39
2019-04-22T03:06:45.950Z,41.19
2019-04-22T03:08:10.831Z,41.19
2019-04-22T03:09:03.435Z,41.30
2019-04-22T03:10:09.107Z,41.09
2019-04-22T03:12:11.563Z,41.09
2019-04-22T03:13:01.126Z,41.30
2019-04-22T03:14:13.258Z,41.19
2019-04-22T03:15:06.242Z,41.49
2019-04-22T03:16:59.745Z,41.49
2019-04-22T03:18:09.931Z,41.80
2019-04-22T03:19:13.869Z,41.49
2019-04-22T03:20:04.152Z,41.99
2019-04-22T03:21:02.237Z,41.99
2019-04-22T03:22:00.495Z,42.10
2019-04-22T03:23:16.525Z,41.89
2019-04-22T03:24:17.990Z,41.49
2019-04-22T03:25:40.853Z,41.80
2019-04-22T03:26:11.509Z,41.69
2019-04-22T03:27:00.827Z,41.69
2019-04-22T03:28:23.659Z,41.49
2019-04-22T03:29:10.794Z,41.60
2019-04-22T03:31:03.686Z,41.49
2019-04-22T03:32:33.441Z,41.60
2019-04-22T03:33:12.195Z,41.60
2019-04-22T03:36:06.536Z,41.89
2019-04-22T03:37:56.171Z,41.30
2019-04-22T03:40:14.403Z,41.69
2019-04-22T03:41:05.724Z,41.39
2019-04-22T03:43:11.186Z,42.10
2019-04-22T03:45:10.210Z,41.69
2019-04-22T03:46:01.665Z,41.61
2019-04-22T03:48:04.657Z,41.49
2019-04-22T03:49:34.772Z,41.52
2019-04-22T03:51:12.033Z,41.41
2019-04-22T03:52:16.322Z,41.60
2019-04-22T03:54:10.511Z,42.40
2019-04-22T03:55:15.716Z,42.19
2019-04-22T03:56:02.398Z,42.21
2019-04-22T03:58:03.704Z,42.10
2019-04-22T03:59:07.680Z,42.32
2019-04-22T04:00:15.750Z,42.40
2019-04-22T04:03:07.075Z,41.91
2019-04-22T04:05:05.315Z,42.41
2019-04-22T04:06:00.209Z,42.11
2019-04-22T04:08:04.915Z,42.32
2019-04-22T04:09:14.345Z,42.10
2019-04-22T04:10:10.241Z,42.02
2019-04-22T04:12:03.949Z,42.41
2019-04-22T04:13:12.237Z,42.21
2019-04-22T04:14:09.317Z,42.29
2019-04-22T04:15:21.289Z,42.41
2019-04-22T04:15:57.764Z,42.32
2019-04-22T04:17:02.358Z,42.32
2019-04-22T04:19:07.857Z,42.52
2019-04-22T04:21:22.849Z,42.52
2019-04-22T04:22:08.049Z,42.32
2019-04-22T04:23:10.460Z,42.61
2019-04-22T04:24:42.231Z,42.52
2019-04-22T04:26:05.082Z,42.61
2019-04-22T04:27:39.890Z,42.41
2019-04-22T04:28:24.320Z,42.61
2019-04-22T04:29:22.092Z,42.41
2019-04-22T04:30:18.925Z,42.61
2019-04-22T04:30:59.795Z,42.52
2019-04-22T04:32:20.549Z,42.41
2019-04-22T04:34:04.454Z,42.52
2019-04-22T04:36:02.750Z,42.71
2019-04-22T04:38:17.233Z,42.61
2019-04-22T04:39:07.403Z,42.41
2019-04-22T04:41:06.912Z,42.41
2019-04-22T04:43:00.972Z,42.41
2019-04-22T04:46:30.291Z,41.91
2019-04-22T04:47:13.636Z,42.71
2019-04-22T04:52:06.609Z,42.61
2019-04-22T04:54:13.224Z,42.61
2019-04-22T04:55:11.907Z,42.52
2019-04-22T04:56:01.917Z,42.21
2019-04-22T04:56:57.083Z,42.61
2019-04-22T05:00:32.046Z,42.52
2019-04-22T05:01:11.201Z,42.41
2019-04-22T05:02:02.385Z,42.61
2019-04-22T05:03:13.877Z,42.41
2019-04-22T05:04:04.396Z,42.41
2019-04-22T05:05:12.081Z,42.52
2019-04-22T05:06:05.913Z,42.52
2019-04-22T05:07:09.204Z,42.41
2019-04-22T05:10:17.104Z,42.61
2019-04-22T05:12:25.291Z,42.61
2019-04-22T05:13:16.670Z,42.82
2019-04-22T05:14:06.094Z,42.82
2019-04-22T05:15:08.584Z,42.21
2019-04-22T05:16:17.490Z,42.61
2019-04-22T05:17:10.956Z,42.71
2019-04-22T05:18:58.700Z,43.01
2019-04-22T05:20:05.170Z,42.71
2019-04-22T05:22:02.385Z,42.61
2019-04-22T05:23:16.223Z,42.61
2019-04-22T05:24:02.442Z,42.61
2019-04-22T05:25:02.907Z,42.82
2019-04-22T05:26:02.900Z,42.93
2019-04-22T05:27:10.635Z,42.41
2019-04-22T05:28:01.562Z,42.91
2019-04-22T05:28:57.907Z,43.32
2019-04-22T05:30:20.616Z,43.32
2019-04-22T05:30:57.263Z,42.61
2019-04-22T05:31:56.961Z,42.82
2019-04-22T05:32:58.832Z,42.61
2019-04-22T05:33:56.743Z,43.12
2019-04-22T05:34:53.003Z,42.41
2019-04-22T05:35:53.582Z,42.41
2019-04-22T05:36:58.917Z,42.52
2019-04-22T05:38:02.711Z,42.41
2019-04-22T05:40:06.551Z,42.61
2019-04-22T05:40:56.080Z,42.41
2019-04-22T05:41:54.994Z,42.91
2019-04-22T05:42:57.159Z,42.61
2019-04-22T05:44:00.166Z,43.01
2019-04-22T05:44:55.561Z,43.01
2019-04-22T05:45:50.946Z,42.71
2019-04-22T05:46:53.918Z,42.61
2019-04-22T05:47:56.216Z,42.52
2019-04-22T05:49:14.957Z,42.41
2019-04-22T05:49:55.161Z,43.12
2019-04-22T05:51:55.009Z,43.12
2019-04-22T05:52:55.286Z,43.12
2019-04-22T05:53:58.982Z,42.52
2019-04-22T05:54:57.675Z,43.01
2019-04-22T05:55:57.131Z,43.32
2019-04-22T05:56:51.705Z,42.82
2019-04-22T05:57:59.161Z,42.41
2019-04-22T05:58:58.606Z,42.91
2019-04-22T06:00:04.014Z,42.41
2019-04-22T06:01:26.538Z,41.52
2019-04-22T06:02:01.271Z,41.02
2019-04-22T06:02:57.186Z,41.52
2019-04-22T06:04:04.335Z,41.41
2019-04-22T06:05:01.796Z,41.52
2019-04-22T06:05:55.140Z,40.81
2019-04-22T06:06:57.169Z,41.11
2019-04-22T06:07:53.816Z,40.41
2019-04-22T06:09:02.831Z,40.52
2019-04-22T06:10:02.352Z,40.52
2019-04-22T06:11:51.739Z,40.81
2019-04-22T06:12:52.410Z,40.41
2019-04-22T06:13:51.711Z,39.91
2019-04-22T06:14:54.026Z,40.11
2019-04-22T06:15:54.318Z,39.72
2019-04-22T06:16:57.192Z,40.01
2019-04-22T06:18:07.664Z,40.11
2019-04-22T06:19:00.368Z,40.53
2019-04-22T06:19:52.882Z,40.81
2019-04-22T06:21:03.697Z,40.52
2019-04-22T06:22:16.944Z,40.81
2019-04-22T06:22:58.478Z,40.93
2019-04-22T06:24:55.272Z,41.02
2019-04-22T06:24:55.392Z,40.81
2019-04-22T06:27:01.556Z,40.83
2019-04-22T06:28:00.259Z,41.02
2019-04-22T06:28:56.861Z,41.31
2019-04-22T06:29:55.341Z,41.24
2019-04-22T06:30:57.589Z,41.02
2019-04-22T06:32:17.472Z,41.11
2019-04-22T06:33:01.164Z,41.52
2019-04-22T06:34:06.022Z,41.63
2019-04-22T06:34:58.931Z,41.11
2019-04-22T06:36:00.487Z,40.91
2019-04-22T06:37:05.091Z,40.81
2019-04-22T06:38:57.127Z,41.21
2019-04-22T06:39:55.406Z,41.52
2019-04-22T06:40:54.241Z,41.52
2019-04-22T06:41:56.183Z,41.21
2019-04-22T06:43:01.068Z,41.41
2019-04-22T06:43:58.453Z,41.21
2019-04-22T06:45:02.774Z,41.43
2019-04-22T06:45:57.695Z,41.41
2019-04-22T06:46:52.254Z,41.82
2019-04-22T06:48:12.857Z,41.91
2019-04-22T06:48:59.853Z,41.11
2019-04-22T06:49:55.476Z,41.63
2019-04-22T06:50:56.817Z,41.74
2019-04-22T06:51:56.753Z,41.61
2019-04-22T06:52:56.902Z,41.93
2019-04-22T06:53:55.699Z,41.71
2019-04-22T06:54:54.761Z,41.91
2019-04-22T06:55:51.329Z,41.61
2019-04-22T06:56:57.761Z,41.52
2019-04-22T06:57:52.660Z,41.52
2019-04-22T06:58:55.080Z,41.82
2019-04-22T07:00:00.518Z,41.61
2019-04-22T07:00:52.132Z,41.43
2019-04-22T07:01:54.759Z,41.41
2019-04-22T07:03:23.379Z,40.43
2019-04-22T07:03:53.478Z,40.61
2019-04-22T07:04:58.325Z,39.81
2019-04-22T07:05:52.443Z,39.61
2019-04-22T07:07:02.275Z,40.41
2019-04-22T07:08:02.690Z,39.61
2019-04-22T07:10:04.022Z,39.72
2019-04-22T07:10:50.809Z,39.91
2019-04-22T07:11:43.384Z,39.01
2019-04-22T07:12:53.928Z,38.71
2019-04-22T07:13:57.337Z,39.31
2019-04-22T07:14:53.496Z,39.01
2019-04-22T07:16:00.138Z,39.31
2019-04-22T07:17:00.576Z,39.31
2019-04-22T07:17:58.394Z,39.31
2019-04-22T07:18:56.877Z,39.31
2019-04-22T07:19:51.178Z,38.93
2019-04-22T07:20:56.370Z,38.81
2019-04-22T07:21:57.714Z,38.91
2019-04-22T07:22:51.499Z,38.91
2019-04-22T07:24:03.190Z,38.81
2019-04-22T07:24:53.869Z,38.91
2019-04-22T07:25:52.126Z,38.81
2019-04-22T07:26:53.672Z,38.91
2019-04-22T07:27:52.582Z,38.71
2019-04-22T07:30:56.261Z,38.81
2019-04-22T07:31:54.708Z,38.83
2019-04-22T07:33:55.543Z,38.91
2019-04-22T07:34:52.792Z,38.81
2019-04-22T07:36:11.038Z,38.81
2019-04-22T07:37:15.769Z,39.13
2019-04-22T07:37:47.098Z,39.13
2019-04-22T07:38:52.714Z,38.91
2019-04-22T07:39:50.259Z,39.01
2019-04-22T07:40:57.069Z,38.73
2019-04-22T07:41:51.685Z,38.91
2019-04-22T07:42:57.076Z,38.93
2019-04-22T07:44:07.416Z,39.11
2019-04-22T07:44:54.837Z,39.23
2019-04-22T07:45:56.563Z,39.03
2019-04-22T07:46:59.338Z,39.01
2019-04-22T07:48:04.703Z,39.13
2019-04-22T07:48:53.631Z,39.11
2019-04-22T07:50:12.850Z,39.13
2019-04-22T07:51:07.504Z,39.13
2019-04-22T07:51:50.125Z,39.03
2019-04-22T07:52:52.085Z,39.13
2019-04-22T07:54:00.078Z,39.13
2019-04-22T07:54:53.034Z,39.13
2019-04-22T07:55:54.981Z,39.23
2019-04-22T07:57:06.297Z,39.23
2019-04-22T07:57:55.863Z,39.23
2019-04-22T07:58:58.811Z,39.03
2019-04-22T07:59:59.563Z,39.43
2019-04-22T08:00:57.334Z,39.43
2019-04-22T08:01:53.639Z,39.33
2019-04-22T08:03:58.747Z,38.93
2019-04-22T08:05:05.372Z,39.43
2019-04-22T08:06:57.307Z,39.43
2019-04-22T08:08:00.910Z,39.13
2019-04-22T08:09:00.289Z,38.93
2019-04-22T08:09:59.740Z,39.03
2019-04-22T08:11:06.844Z,38.83
2019-04-22T08:12:02.985Z,38.83
2019-04-22T08:12:51.916Z,39.53
2019-04-22T08:13:54.947Z,39.03
2019-04-22T08:14:52.575Z,39.13
2019-04-22T08:15:53.778Z,38.83
2019-04-22T08:17:01.500Z,38.93
2019-04-22T08:18:55.838Z,38.83
2019-04-22T08:19:59.225Z,38.93
2019-04-22T08:20:56.599Z,38.73
2019-04-22T08:21:59.971Z,39.73
2019-04-22T08:23:01.120Z,39.01
2019-04-22T08:23:58.619Z,39.73
2019-04-22T08:24:57.791Z,38.73
2019-04-22T08:26:04.987Z,39.13
2019-04-22T08:26:56.464Z,39.03
2019-04-22T08:28:01.660Z,38.81
2019-04-22T08:29:03.676Z,38.61
2019-04-22T08:30:00.110Z,38.91
2019-04-22T08:30:56.693Z,39.11
2019-04-22T08:31:55.425Z,38.81
2019-04-22T08:32:53.176Z,38.61
2019-04-22T08:33:54.345Z,38.83
2019-04-22T08:34:47.415Z,38.81
2019-04-22T08:37:24.169Z,38.51
2019-04-22T08:40:04.537Z,38.61
2019-04-22T08:40:56.142Z,39.22
2019-04-22T08:41:43.580Z,38.51
2019-04-22T08:42:57.661Z,39.11
2019-04-22T08:43:57.659Z,38.83
2019-04-22T08:45:07.771Z,38.42
2019-04-22T08:46:06.188Z,38.71
2019-04-22T08:46:57.912Z,38.51
2019-04-22T08:47:47.859Z,38.11
2019-04-22T08:50:06.029Z,37.92
2019-04-22T08:50:50.775Z,38.01
2019-04-22T08:51:48.877Z,37.92
2019-04-22T08:52:58.643Z,37.51
2019-04-22T08:54:58.280Z,37.61
2019-04-22T08:55:56.729Z,37.92
2019-04-22T08:58:13.368Z,37.92
2019-04-22T08:58:56.787Z,38.11
2019-04-22T08:59:59.571Z,38.21
2019-04-22T09:00:57.221Z,37.51
2019-04-22T09:01:49.165Z,38.11
2019-04-22T09:02:53.973Z,38.21
2019-04-22T09:03:58.553Z,38.21
2019-04-22T09:04:53.987Z,38.09
2019-04-22T09:06:12.460Z,38.51
2019-04-22T09:07:12.517Z,38.70
2019-04-22T09:07:54.705Z,38.09
2019-04-22T09:08:55.209Z,37.79
2019-04-22T09:09:54.092Z,38.09
2019-04-22T09:10:57.350Z,38.09
2019-04-22T09:11:54.661Z,37.59
2019-04-22T09:13:03.623Z,37.59
2019-04-22T09:13:55.777Z,37.59
2019-04-22T09:15:08.296Z,37.79
2019-04-22T09:15:48.777Z,37.99
2019-04-22T09:16:48.497Z,37.59
2019-04-22T09:17:55.860Z,37.70
2019-04-22T09:18:56.174Z,37.79
2019-04-22T09:19:58.306Z,37.10
2019-04-22T09:21:01.340Z,37.19
2019-04-22T09:21:56.018Z,36.99
2019-04-22T09:22:56.476Z,37.10
2019-04-22T09:24:00.673Z,36.90
2019-04-22T09:24:55.197Z,36.99
2019-04-22T09:25:57.573Z,37.79
2019-04-22T09:26:55.667Z,37.90
2019-04-22T09:27:49.796Z,37.90
2019-04-22T09:29:50.080Z,37.70
2019-04-22T09:30:55.267Z,36.90
2019-04-22T09:32:03.937Z,36.98
2019-04-22T09:32:55.772Z,36.88
2019-04-22T09:33:49.102Z,37.10
2019-04-22T09:34:51.496Z,36.98
2019-04-22T09:36:58.646Z,37.99
2019-04-22T09:38:00.279Z,38.68
2019-04-22T09:39:12.281Z,37.98
2019-04-22T09:40:01.073Z,38.07
2019-04-22T09:40:51.817Z,37.88
2019-04-22T09:41:51.186Z,37.99
2019-04-22T09:45:52.879Z,37.27
2019-04-22T09:46:52.291Z,37.68
2019-04-22T09:47:56.746Z,37.38
2019-04-22T09:48:59.035Z,38.57
2019-04-22T09:49:56.628Z,38.07
2019-04-22T09:50:52.606Z,36.88
2019-04-22T09:51:55.414Z,36.88
2019-04-22T09:52:54.645Z,36.99
2019-04-22T09:54:01.026Z,36.99
2019-04-22T09:55:01.646Z,36.60
2019-04-22T09:55:51.631Z,36.19
2019-04-22T09:56:51.771Z,36.79
2019-04-22T09:57:52.468Z,36.19
2019-04-22T09:59:59.471Z,36.90
2019-04-22T10:01:02.989Z,37.29
2019-04-22T10:02:08.151Z,36.99
2019-04-22T10:03:00.411Z,37.19
2019-04-22T10:04:57.311Z,37.70
2019-04-22T10:06:07.512Z,37.90
2019-04-22T10:06:48.446Z,37.90
2019-04-22T10:07:54.350Z,38.40
2019-04-22T10:10:09.058Z,37.99
2019-04-22T10:10:57.314Z,38.70
2019-04-22T10:11:51.096Z,37.70
2019-04-22T10:12:46.618Z,37.77
2019-04-22T10:13:53.636Z,38.09
2019-04-22T10:14:49.643Z,38.48
2019-04-22T10:15:58.968Z,38.09
2019-04-22T10:16:51.862Z,37.77
2019-04-22T10:17:54.039Z,37.90
2019-04-22T10:18:53.027Z,37.70
2019-04-22T10:19:57.886Z,38.07
2019-04-22T10:20:54.457Z,37.88
2019-04-22T10:22:51.810Z,37.49
2019-04-22T10:23:54.687Z,37.77
2019-04-22T10:24:55.286Z,38.20
2019-04-22T10:25:52.318Z,38.20
2019-04-22T10:26:55.202Z,37.99
2019-04-22T10:27:59.900Z,37.68
2019-04-22T10:30:06.101Z,37.68
2019-04-22T10:30:52.238Z,38.07
2019-04-22T10:32:47.572Z,36.86
2019-04-22T10:33:46.406Z,36.86
2019-04-22T10:34:34.793Z,36.86
2019-04-22T10:35:28.797Z,37.16
2019-04-22T10:36:25.717Z,36.94
2019-04-22T10:37:25.747Z,37.14
2019-04-22T10:38:26.471Z,37.34
2019-04-22T10:39:37.816Z,34.94
2019-04-22T10:40:27.979Z,33.95
2019-04-22T10:41:26.332Z,33.04
2019-04-22T10:42:27.036Z,32.95
2019-04-22T10:43:25.571Z,32.95
2019-04-22T10:44:26.870Z,33.84
2019-04-22T10:45:26.058Z,34.44
2019-04-22T10:46:26.349Z,34.75
2019-04-22T10:47:25.791Z,33.95
2019-04-22T10:48:26.204Z,34.64
2019-04-22T10:49:26.622Z,34.94
2019-04-22T10:50:25.502Z,33.43
2019-04-22T10:51:26.547Z,33.75
2019-04-22T10:52:25.672Z,33.25
2019-04-22T10:53:25.797Z,33.13
2019-04-22T10:54:25.454Z,33.43
2019-04-22T10:55:25.509Z,33.63
2019-04-22T10:56:25.451Z,34.23
2019-04-22T10:57:25.641Z,34.13
2019-04-22T10:58:26.674Z,33.33
2019-04-22T10:59:26.809Z,33.83
2019-04-22T11:00:25.373Z,33.93
2019-04-22T11:01:25.696Z,33.83
2019-04-22T11:02:25.688Z,33.43
2019-04-22T11:03:26.606Z,33.33
2019-04-22T11:04:25.948Z,33.53
2019-04-22T11:05:26.174Z,33.53
2019-04-22T11:06:25.469Z,34.13
2019-04-22T11:07:35.988Z,33.63
2019-04-22T11:08:34.560Z,33.83
2019-04-22T11:09:27.066Z,33.83
2019-04-22T11:10:41.326Z,34.33
2019-04-22T11:11:41.124Z,34.43
2019-04-22T11:12:28.874Z,33.43
2019-04-22T11:13:26.273Z,33.42
2019-04-22T11:14:26.538Z,33.23
2019-04-22T11:15:26.481Z,33.53
2019-04-22T11:16:25.684Z,33.23
2019-04-22T11:17:25.986Z,33.42
2019-04-22T11:18:25.403Z,32.71
2019-04-22T11:19:25.606Z,33.01
2019-04-22T11:20:26.018Z,33.12
2019-04-22T11:21:25.484Z,32.82
2019-04-22T11:22:31.202Z,33.51
2019-04-22T11:23:27.149Z,33.13
2019-04-22T11:24:26.466Z,33.42
2019-04-22T11:25:25.553Z,33.61
2019-04-22T11:26:25.916Z,33.31
2019-04-22T11:27:25.411Z,33.31
2019-04-22T11:28:25.575Z,32.92
2019-04-22T11:29:25.550Z,32.71
2019-04-22T11:30:27.966Z,32.92
2019-04-22T11:31:26.339Z,33.01
2019-04-22T11:32:26.476Z,32.92
2019-04-22T11:33:25.007Z,32.92
2019-04-22T11:34:25.059Z,32.92
2019-04-22T11:35:25.775Z,32.71
2019-04-22T11:36:28.693Z,33.01
2019-04-22T11:37:25.961Z,32.20
2019-04-22T11:38:24.963Z,32.10
2019-04-22T11:39:26.283Z,32.30
2019-04-22T11:40:32.618Z,32.40
2019-04-22T11:41:26.034Z,32.10
2019-04-22T11:42:25.934Z,32.40
2019-04-22T11:43:26.158Z,32.40
2019-04-22T11:44:25.364Z,32.60
2019-04-22T11:45:24.876Z,32.40
2019-04-22T11:46:25.401Z,32.60
2019-04-22T11:47:25.554Z,31.99
2019-04-22T11:48:24.854Z,31.01
2019-04-22T11:49:25.880Z,31.40
2019-04-22T11:50:26.128Z,31.40
2019-04-22T11:51:24.808Z,30.99
2019-04-22T11:52:24.828Z,31.70
2019-04-22T11:53:24.959Z,31.79
2019-04-22T11:54:25.128Z,31.49
2019-04-22T11:55:24.779Z,31.49
2019-04-22T11:56:25.172Z,31.69
2019-04-22T11:57:25.349Z,31.79
2019-04-22T11:58:24.784Z,31.27
2019-04-22T11:59:24.991Z,30.88
2019-04-22T12:00:25.080Z,31.27
2019-04-22T12:01:24.740Z,30.77
2019-04-22T12:02:25.405Z,31.37
2019-04-22T12:03:25.343Z,31.67
2019-04-22T12:04:25.722Z,31.37
2019-04-22T12:05:25.968Z,30.07
2019-04-22T12:06:26.088Z,30.07
2019-04-22T12:07:24.685Z,29.47
2019-04-22T12:08:25.129Z,29.47
2019-04-22T12:09:25.734Z,30.46
2019-04-22T12:10:33.012Z,30.16
2019-04-22T12:11:26.296Z,29.95
2019-04-22T12:12:25.581Z,30.56
2019-04-22T12:13:26.059Z,30.25
2019-04-22T12:14:25.651Z,30.05
2019-04-22T12:15:24.730Z,29.65
2019-04-22T12:16:25.497Z,28.96
2019-04-22T12:17:24.536Z,28.76
2019-04-22T12:18:24.904Z,29.74
2019-04-22T12:19:25.229Z,29.94
2019-04-22T12:20:25.492Z,29.04
2019-04-22T12:21:24.475Z,29.24
2019-04-22T12:22:25.123Z,28.94
2019-04-22T12:23:25.163Z,29.44
2019-04-22T12:24:25.097Z,28.64
2019-04-22T12:25:38.962Z,29.44
2019-04-22T12:26:26.907Z,28.74
2019-04-22T12:27:28.012Z,28.53
2019-04-22T12:28:24.431Z,28.53
2019-04-22T12:29:24.856Z,29.13
2019-04-22T12:30:25.587Z,29.22
2019-04-22T12:31:24.363Z,29.22
2019-04-22T12:32:25.365Z,29.33
2019-04-22T12:33:25.261Z,29.13
2019-04-22T12:34:25.657Z,29.13
2019-04-22T12:35:24.487Z,29.22
2019-04-22T12:36:24.642Z,29.43
2019-04-22T12:37:34.272Z,29.21
2019-04-22T12:38:25.347Z,29.31
2019-04-22T12:39:25.372Z,28.62
2019-04-22T12:40:33.861Z,29.31
2019-04-22T12:41:25.857Z,28.42
2019-04-22T12:42:24.260Z,28.91
2019-04-22T12:43:26.071Z,28.91
2019-04-22T12:44:24.495Z,28.52
2019-04-22T12:45:24.611Z,28.60
2019-04-22T12:46:24.213Z,28.50
2019-04-22T12:47:24.432Z,28.49
2019-04-22T12:48:25.429Z,27.89
2019-04-22T12:49:24.167Z,28.38
2019-04-22T12:50:30.059Z,28.28
2019-04-22T12:51:25.241Z,28.38
2019-04-22T12:52:34.225Z,27.37
2019-04-22T12:53:27.659Z,28.06
2019-04-22T12:54:24.630Z,27.67
2019-04-22T12:55:24.104Z,27.36
2019-04-22T12:56:25.678Z,27.16
2019-04-22T12:57:24.875Z,27.04
2019-04-22T12:58:25.465Z,26.06
2019-04-22T12:59:25.248Z,26.15
2019-04-22T13:00:24.718Z,26.06
2019-04-22T13:01:24.685Z,25.65
2019-04-22T13:02:25.152Z,25.44
2019-04-22T13:03:24.523Z,25.44
2019-04-22T13:04:25.228Z,25.93
2019-04-22T13:05:25.033Z,25.63
2019-04-22T13:06:23.987Z,25.63
2019-04-22T13:07:24.157Z,24.73
2019-04-22T13:08:25.365Z,25.92
2019-04-22T13:09:25.212Z,26.21
2019-04-22T13:10:24.191Z,25.62
2019-04-22T13:11:28.804Z,24.72
2019-04-22T13:12:24.934Z,24.72
2019-04-22T13:13:25.084Z,24.82
2019-04-22T13:14:25.102Z,24.22
2019-04-22T13:15:23.959Z,24.52
2019-04-22T13:16:25.016Z,24.32
2019-04-22T13:17:24.964Z,24.51
2019-04-22T13:18:34.003Z,24.51
2019-04-22T13:19:26.777Z,24.81
2019-04-22T13:20:24.303Z,25.60
2019-04-22T13:21:24.633Z,25.01
2019-04-22T13:22:25.040Z,24.69
2019-04-22T13:23:23.813Z,24.80
2019-04-22T13:24:23.886Z,24.39
2019-04-22T13:25:27.972Z,24.88
2019-04-22T13:26:25.443Z,24.19
2019-04-22T13:27:24.790Z,24.09
2019-04-22T13:28:25.214Z,24.98
2019-04-22T13:29:25.129Z,24.49
2019-04-22T13:30:23.741Z,24.77
2019-04-22T13:31:24.539Z,24.48
2019-04-22T13:32:25.001Z,25.27
2019-04-22T13:33:24.970Z,24.57
2019-04-22T13:34:32.957Z,24.77
2019-04-22T13:35:26.096Z,24.56
2019-04-22T13:36:25.573Z,25.35
2019-04-22T13:37:25.241Z,25.45
2019-04-22T13:38:24.977Z,25.45
2019-04-22T13:39:24.957Z,25.24
2019-04-22T13:40:23.615Z,24.16
2019-04-22T13:41:31.728Z,24.35
2019-04-22T13:42:25.458Z,25.23
2019-04-22T13:43:24.911Z,24.85
2019-04-22T13:44:25.021Z,24.75
2019-04-22T13:45:23.580Z,24.54
2019-04-22T13:46:24.054Z,25.13
2019-04-22T13:47:42.073Z,24.84
2019-04-22T13:48:46.898Z,24.64
2019-04-22T13:50:01.085Z,24.24
2019-04-22T13:51:56.449Z,24.63
2019-04-22T13:52:56.291Z,24.64
2019-04-22T13:54:14.446Z,24.64
2019-04-22T13:54:53.385Z,24.43
2019-04-22T13:55:51.506Z,24.34
2019-04-22T13:56:46.547Z,24.53
2019-04-22T13:57:42.557Z,24.54
2019-04-22T13:58:40.904Z,25.03
2019-04-22T13:59:32.279Z,24.24
2019-04-22T14:00:24.893Z,24.54
2019-04-22T14:01:24.759Z,24.74
2019-04-22T14:02:24.376Z,24.95
2019-04-22T14:03:24.630Z,24.65
2019-04-22T14:04:24.680Z,24.95
2019-04-22T14:05:24.544Z,24.45
2019-04-22T14:06:24.836Z,24.45
2019-04-22T14:07:23.339Z,24.97
2019-04-22T14:08:24.875Z,25.57
2019-04-22T14:09:24.425Z,25.19
2019-04-22T14:10:24.766Z,25.90
2019-04-22T14:11:34.566Z,26.29
2019-04-22T14:12:24.697Z,25.60
2019-04-22T14:13:23.861Z,25.81
2019-04-22T14:14:24.012Z,25.81
2019-04-22T14:15:24.303Z,25.61
2019-04-22T14:16:24.516Z,25.72
2019-04-22T14:17:23.241Z,26.12
2019-04-22T14:18:23.307Z,25.82
2019-04-22T14:19:23.732Z,25.72
2019-04-22T14:20:25.834Z,26.53